createdAt,value
2019-04-04T00:00:27.003Z,81.82
2019-04-04T00:02:56.637Z,81.13
2019-04-04T00:05:26.315Z,80.67
2019-04-04T00:07:55.613Z,80.11
2019-04-04T00:10:25.322Z,80.00
2019-04-04T00:12:54.528Z,80.48
2019-04-04T00:15:23.791Z,80.66
2019-04-04T00:17:53.854Z,80.67
2019-04-04T00:20:24.010Z,79.77
2019-04-04T00:22:53.255Z,78.77
2019-04-04T00:25:22.510Z,77.92
2019-04-04T00:27:51.750Z,77.48
2019-04-04T00:30:23.580Z,79.25
2019-04-04T00:32:53.369Z,79.29
2019-04-04T00:35:22.607Z,79.74
2019-04-04T00:37:51.885Z,78.05
2019-04-04T00:40:21.469Z,78.17
2019-04-04T00:42:50.747Z,81.13
2019-04-04T00:45:20.039Z,81.83
2019-04-04T00:47:49.256Z,80.13
2019-04-04T00:50:18.878Z,79.41
2019-04-04T00:52:48.113Z,78.61
2019-04-04T00:55:17.367Z,79.61
2019-04-04T00:57:48.227Z,79.83
2019-04-04T01:00:18.080Z,79.83
2019-04-04T01:02:47.304Z,79.77
2019-04-04T01:05:16.521Z,79.54
2019-04-04T01:07:47.693Z,78.97
2019-04-04T01:10:19.063Z,80.27
2019-04-04T01:12:48.142Z,81.36
2019-04-04T01:15:17.907Z,80.93
2019-04-04T01:17:47.125Z,81.83
2019-04-04T01:20:18.114Z,80.28
2019-04-04T01:22:47.330Z,80.45
2019-04-04T01:25:16.565Z,79.22
2019-04-04T01:27:45.771Z,79.15
2019-04-04T01:30:15.413Z,78.77
2019-04-04T01:32:46.252Z,79.11
2019-04-04T01:35:15.541Z,77.67
2019-04-04T01:37:45.234Z,77.38
2019-04-04T01:40:14.460Z,76.45
2019-04-04T01:42:43.726Z,78.44
2019-04-04T01:45:13.726Z,77.21
2019-04-04T01:47:43.352Z,76.52
2019-04-04T01:50:12.669Z,75.89
2019-04-04T01:52:41.933Z,75.71
2019-04-04T01:55:11.490Z,75.14
2019-04-04T01:57:40.705Z,74.85
2019-04-04T02:00:10.853Z,75.01
2019-04-04T02:02:40.416Z,74.76
2019-04-04T02:05:09.755Z,74.25
2019-04-04T02:07:39.016Z,74.05
2019-04-04T02:10:08.355Z,74.84
2019-04-04T02:12:39.230Z,75.16
2019-04-04T02:15:09.050Z,75.60
2019-04-04T02:17:38.284Z,77.86
2019-04-04T02:20:08.083Z,77.54
2019-04-04T02:22:37.390Z,77.29
2019-04-04T02:25:07.025Z,78.42
2019-04-04T02:27:37.917Z,79.18
2019-04-04T02:30:08.121Z,78.77
2019-04-04T02:32:37.349Z,77.32
2019-04-04T02:35:10.293Z,76.01
2019-04-04T02:37:38.034Z,76.78
2019-04-04T02:40:09.003Z,76.17
2019-04-04T02:45:10.266Z,74.49
2019-04-04T02:47:42.636Z,77.84
2019-04-04T02:50:12.064Z,78.73
2019-04-04T02:52:45.683Z,76.70
2019-04-04T02:55:12.588Z,76.29
2019-04-04T02:57:42.520Z,78.17
2019-04-04T03:00:12.274Z,77.57
2019-04-04T03:02:43.174Z,76.95
2019-04-04T03:05:12.581Z,77.07
2019-04-04T03:07:41.840Z,79.34
2019-04-04T03:10:15.206Z,78.36
2019-04-04T03:12:42.331Z,76.99
2019-04-04T03:15:11.665Z,76.63
2019-04-04T03:17:41.305Z,77.25
2019-04-04T03:20:10.628Z,76.19
2019-04-04T03:22:39.895Z,75.92
2019-04-04T03:25:09.140Z,75.68
2019-04-04T03:27:38.365Z,74.54
2019-04-04T03:30:13.571Z,76.47
2019-04-04T03:32:38.907Z,79.12
2019-04-04T03:35:08.446Z,80.09
2019-04-04T03:37:40.561Z,78.84
2019-04-04T03:40:08.888Z,77.42
2019-04-04T03:42:38.100Z,76.24
2019-04-04T03:45:07.414Z,74.94
2019-04-04T03:47:36.631Z,75.91
2019-04-04T03:50:08.628Z,76.03
2019-04-04T03:52:43.313Z,77.21
2019-04-04T03:55:09.355Z,77.41
2019-04-04T03:57:38.610Z,76.76
2019-04-04T04:00:08.829Z,77.31
2019-04-04T04:02:38.058Z,76.89
2019-04-04T04:05:23.788Z,76.21
2019-04-04T04:07:53.444Z,76.62
2019-04-04T04:10:22.754Z,76.69
2019-04-04T04:12:52.468Z,75.40
2019-04-04T04:15:22.832Z,76.51
2019-04-04T04:17:53.408Z,76.03
2019-04-04T04:20:23.495Z,76.74
2019-04-04T04:22:53.261Z,76.13
2019-04-04T04:25:23.056Z,75.49
2019-04-04T04:27:53.942Z,75.76
2019-04-04T04:30:23.320Z,75.54
2019-04-04T04:32:57.648Z,75.46
2019-04-04T04:35:26.888Z,75.10
2019-04-04T04:37:56.140Z,74.26
2019-04-04T04:40:25.449Z,73.86
2019-04-04T04:42:54.718Z,74.78
2019-04-04T04:45:24.032Z,74.86
2019-04-04T04:47:57.079Z,74.70
2019-04-04T04:50:24.731Z,73.70
2019-04-04T04:52:53.975Z,72.58
2019-04-04T04:55:24.504Z,72.73
2019-04-04T04:57:56.356Z,73.39
2019-04-04T05:00:27.749Z,72.72
2019-04-04T05:02:56.522Z,72.81
2019-04-04T05:05:25.779Z,74.23
2019-04-04T05:07:55.214Z,77.04
2019-04-04T05:10:24.916Z,76.92
2019-04-04T05:12:56.269Z,77.74
2019-04-04T05:15:25.527Z,78.87
2019-04-04T05:17:55.198Z,76.83
2019-04-04T05:20:25.541Z,78.25
2019-04-04T05:22:55.446Z,76.61
2019-04-04T05:25:25.267Z,76.42
2019-04-04T05:27:54.613Z,75.79
2019-04-04T05:30:23.926Z,75.70
2019-04-04T05:32:56.351Z,75.05
2019-04-04T05:35:24.582Z,76.59
2019-04-04T05:37:53.839Z,76.34
2019-04-04T05:40:24.291Z,75.96
2019-04-04T05:42:53.567Z,75.29
2019-04-04T05:45:22.826Z,74.94
2019-04-04T05:47:55.090Z,75.75
2019-04-04T05:50:23.598Z,75.46
2019-04-04T05:52:52.895Z,74.70
2019-04-04T05:55:22.692Z,74.45
2019-04-04T05:57:51.940Z,76.26
2019-04-04T06:00:21.360Z,76.17
2019-04-04T06:02:51.429Z,76.98
2019-04-04T06:05:50.926Z,77.26
2019-04-04T06:08:52.136Z,77.35
2019-04-04T06:11:26.178Z,78.01
2019-04-04T06:13:59.021Z,78.70
2019-04-04T06:16:28.116Z,79.96
2019-04-04T06:18:57.348Z,79.72
2019-04-04T06:21:27.152Z,78.44
2019-04-04T06:23:56.755Z,79.64
2019-04-04T06:26:25.997Z,80.05
2019-04-04T06:28:55.699Z,80.63
2019-04-04T06:31:26.912Z,81.38
2019-04-04T06:33:55.883Z,81.38
2019-04-04T06:36:25.679Z,81.85
2019-04-04T06:38:54.974Z,79.89
2019-04-04T06:41:24.212Z,80.05
2019-04-04T06:43:53.923Z,80.18
2019-04-04T06:46:27.076Z,79.73
2019-04-04T06:48:56.295Z,78.93
2019-04-04T06:51:31.571Z,78.53
2019-04-04T06:54:00.921Z,77.76
2019-04-04T06:56:32.025Z,77.35
2019-04-04T06:59:01.608Z,77.03
2019-04-04T07:01:30.944Z,77.17
2019-04-04T07:04:00.294Z,76.62
2019-04-04T07:06:30.153Z,76.24
2019-04-04T07:08:59.444Z,76.63
2019-04-04T07:11:28.763Z,76.62
2019-04-04T07:13:59.073Z,75.88
2019-04-04T07:16:28.961Z,76.54
2019-04-04T07:18:58.257Z,76.23
2019-04-04T07:21:27.952Z,74.32
2019-04-04T07:23:59.533Z,73.05
2019-04-04T07:26:28.157Z,72.70
2019-04-04T07:28:57.919Z,72.18
2019-04-04T07:31:27.391Z,72.12
2019-04-04T07:33:56.679Z,72.97
2019-04-04T07:36:26.385Z,74.00
2019-04-04T07:38:55.627Z,73.39
2019-04-04T07:41:24.887Z,73.00
2019-04-04T07:43:54.174Z,71.70
2019-04-04T07:46:23.465Z,71.23
2019-04-04T07:48:53.137Z,71.43
2019-04-04T07:51:22.396Z,71.05
2019-04-04T07:53:51.690Z,70.62
2019-04-04T07:56:21.245Z,71.46
2019-04-04T07:58:50.539Z,71.36
2019-04-04T08:01:19.936Z,72.07
2019-04-04T08:03:49.581Z,72.93
2019-04-04T08:06:18.876Z,73.08
2019-04-04T08:08:48.190Z,73.51
2019-04-04T08:11:18.004Z,73.51
2019-04-04T08:13:47.356Z,73.00
2019-04-04T08:16:16.583Z,73.32
2019-04-04T08:18:46.286Z,73.69
2019-04-04T08:21:16.330Z,75.09
2019-04-04T08:23:45.660Z,76.09
2019-04-04T08:26:15.232Z,76.27
2019-04-04T08:28:44.511Z,76.26
2019-04-04T08:31:13.746Z,76.23
2019-04-04T08:33:43.366Z,75.88
2019-04-04T08:36:12.639Z,75.72
2019-04-04T08:38:41.891Z,76.88
2019-04-04T08:41:11.589Z,76.27
2019-04-04T08:43:44.400Z,75.65
2019-04-04T08:46:20.043Z,75.47
2019-04-04T08:48:59.434Z,74.70
2019-04-04T08:51:29.275Z,75.59
2019-04-04T08:54:04.333Z,76.86
2019-04-04T08:56:41.759Z,76.58
2019-04-04T08:59:20.791Z,75.51
2019-04-04T09:01:53.265Z,74.69
2019-04-04T09:04:24.189Z,75.43
2019-04-04T09:06:54.219Z,75.13
2019-04-04T09:09:23.545Z,75.47
2019-04-04T09:11:53.773Z,74.67
2019-04-04T09:14:23.397Z,75.75
2019-04-04T09:16:53.098Z,74.70
2019-04-04T09:22:25.090Z,75.25
2019-04-04T09:25:01.572Z,75.01
2019-04-04T09:27:31.044Z,75.07
2019-04-04T09:30:05.467Z,74.94
2019-04-04T09:32:34.848Z,75.26
2019-04-04T09:35:04.324Z,74.21
2019-04-04T09:37:36.617Z,73.81
2019-04-04T09:40:09.263Z,73.18
2019-04-04T09:42:41.356Z,73.24
2019-04-04T09:45:10.810Z,73.94
2019-04-04T09:47:40.068Z,74.95
2019-04-04T09:50:10.399Z,74.11
2019-04-04T09:52:40.660Z,74.35
2019-04-04T09:55:10.118Z,73.49
2019-04-04T09:57:39.753Z,74.31
2019-04-04T10:00:12.163Z,74.12
2019-04-04T10:02:41.705Z,74.03
2019-04-04T10:05:11.363Z,73.37
2019-04-04T10:07:41.354Z,72.90
2019-04-04T10:10:12.148Z,72.85
2019-04-04T10:12:41.726Z,72.13
2019-04-04T10:15:11.367Z,71.68
2019-04-04T10:17:40.686Z,72.34
2019-04-04T10:20:10.491Z,72.08
2019-04-04T10:22:39.704Z,72.16
2019-04-04T10:25:09.069Z,72.79
2019-04-04T10:27:38.738Z,71.71
2019-04-04T10:30:08.551Z,72.47
2019-04-04T10:32:37.897Z,73.33
2019-04-04T10:35:07.809Z,72.94
2019-04-04T10:37:37.036Z,72.52
2019-04-04T10:40:09.190Z,71.87
2019-04-04T10:42:38.409Z,71.25
2019-04-04T10:45:08.722Z,71.53
2019-04-04T10:47:38.634Z,71.28
2019-04-04T10:50:08.995Z,70.40
2019-04-04T10:52:38.265Z,70.18
2019-04-04T10:55:08.438Z,70.83
2019-04-04T10:57:37.680Z,71.73
2019-04-04T11:00:08.154Z,71.97
2019-04-04T11:02:37.795Z,71.87
2019-04-04T11:05:07.145Z,72.00
2019-04-04T11:07:36.378Z,71.97
2019-04-04T11:10:07.120Z,71.24
2019-04-04T11:12:36.357Z,71.60
2019-04-04T11:15:06.020Z,71.15
2019-04-04T11:17:35.692Z,70.96
2019-04-04T11:20:08.244Z,71.32
2019-04-04T11:22:37.467Z,71.60
2019-04-04T11:25:06.847Z,71.12
2019-04-04T11:27:36.178Z,71.81
2019-04-04T11:30:08.968Z,71.82
2019-04-04T11:32:38.330Z,72.05
2019-04-04T11:35:07.859Z,72.59
2019-04-04T11:37:37.506Z,71.91
2019-04-04T11:40:06.975Z,73.11
2019-04-04T11:42:36.250Z,72.41
2019-04-04T11:45:06.023Z,72.93
2019-04-04T11:47:35.287Z,73.56
2019-04-04T11:50:06.376Z,72.70
2019-04-04T11:52:35.969Z,72.98
2019-04-04T11:55:05.755Z,72.77
2019-04-04T11:57:35.019Z,73.04
2019-04-04T12:00:08.631Z,72.34
2019-04-04T12:02:37.881Z,73.29
2019-04-04T12:05:07.385Z,72.47
2019-04-04T12:07:39.563Z,72.28
2019-04-04T12:10:09.142Z,72.12
2019-04-04T12:12:39.070Z,72.93
2019-04-04T12:15:09.256Z,72.27
2019-04-04T12:17:38.522Z,72.16
2019-04-04T12:20:08.409Z,72.41
2019-04-04T12:22:37.687Z,71.85
2019-04-04T12:25:07.068Z,72.15
2019-04-04T12:27:36.679Z,72.40
2019-04-04T12:30:10.520Z,71.61
2019-04-04T12:32:43.617Z,70.96
2019-04-04T12:35:13.446Z,70.75
2019-04-04T12:37:42.707Z,70.76
2019-04-04T12:40:20.571Z,71.91
2019-04-04T12:42:43.578Z,74.95
2019-04-04T12:45:13.259Z,76.15
2019-04-04T12:47:42.519Z,76.83
2019-04-04T12:50:12.298Z,76.10
2019-04-04T12:52:42.535Z,76.27
2019-04-04T12:55:11.833Z,76.18
2019-04-04T12:57:42.489Z,77.21
2019-04-04T13:00:11.913Z,79.25
2019-04-04T13:02:41.192Z,78.39
2019-04-04T13:05:10.913Z,78.37
2019-04-04T13:07:40.132Z,78.18
2019-04-04T13:10:11.857Z,78.65
2019-04-04T13:12:41.587Z,78.80
2019-04-04T13:15:11.090Z,79.71
2019-04-04T13:17:40.565Z,80.71
2019-04-04T13:20:10.155Z,80.17
2019-04-04T13:22:39.407Z,79.76
2019-04-04T13:25:10.308Z,80.46
2019-04-04T13:27:40.181Z,80.42
2019-04-04T13:30:11.472Z,80.05
2019-04-04T13:32:41.050Z,79.29
2019-04-04T13:35:10.635Z,78.59
2019-04-04T13:37:39.932Z,77.16
2019-04-04T13:40:09.948Z,76.01
2019-04-04T13:42:39.217Z,75.57
2019-04-04T13:45:09.034Z,77.29
2019-04-04T13:47:40.260Z,76.94
2019-04-04T13:50:12.467Z,75.93
2019-04-04T13:52:41.645Z,76.52
2019-04-04T13:55:11.019Z,76.32
2019-04-04T13:57:40.310Z,78.21
2019-04-04T14:00:10.733Z,75.86
2019-04-04T14:02:39.969Z,76.02
2019-04-04T14:05:11.476Z,74.98
2019-04-04T14:07:43.424Z,74.45
2019-04-04T14:10:11.967Z,74.76
2019-04-04T14:12:41.434Z,74.03
2019-04-04T14:15:11.432Z,73.14
2019-04-04T14:17:43.518Z,73.15
2019-04-04T14:20:11.924Z,73.03
2019-04-04T14:22:41.605Z,73.17
2019-04-04T14:25:10.876Z,73.32
2019-04-04T14:27:40.111Z,72.54
2019-04-04T14:30:11.180Z,72.30
2019-04-04T14:32:40.477Z,71.68
2019-04-04T14:35:10.032Z,71.58
2019-04-04T14:37:39.655Z,72.24
2019-04-04T14:40:09.254Z,72.87
2019-04-04T14:42:38.576Z,70.91
2019-04-04T14:45:08.600Z,70.13
2019-04-04T14:47:37.957Z,70.43
2019-04-04T14:50:07.506Z,69.95
2019-04-04T14:52:39.485Z,70.10
2019-04-04T14:55:08.820Z,70.59
2019-04-04T14:57:38.158Z,70.75
2019-04-04T15:00:09.701Z,71.22
2019-04-04T15:05:19.841Z,73.79
2019-04-04T15:07:49.201Z,75.37
2019-04-04T15:10:19.121Z,75.34
2019-04-04T15:12:48.672Z,74.17
2019-04-04T15:15:18.076Z,73.34
2019-04-04T15:17:47.882Z,72.61
2019-04-04T15:20:19.118Z,73.01
2019-04-04T15:22:48.623Z,73.60
2019-04-04T15:25:18.473Z,74.78
2019-04-04T15:27:47.933Z,75.32
2019-04-04T15:30:17.471Z,74.36
2019-04-04T15:32:47.476Z,72.71
2019-04-04T15:35:16.841Z,73.44
2019-04-04T15:37:46.292Z,72.78
2019-04-04T15:40:17.422Z,72.35
2019-04-04T15:42:46.870Z,71.74
2019-04-04T15:45:16.540Z,71.74
2019-04-04T15:47:46.615Z,71.87
2019-04-04T15:50:16.487Z,74.57
2019-04-04T15:52:45.816Z,73.84
2019-04-04T15:55:15.628Z,72.75
2019-04-04T15:57:45.072Z,71.95
2019-04-04T16:00:14.789Z,71.81
2019-04-04T16:02:44.899Z,71.27
2019-04-04T16:05:14.910Z,70.17
2019-04-04T16:07:44.486Z,70.93
2019-04-04T16:10:14.510Z,70.25
2019-04-04T16:12:44.056Z,70.13
2019-04-04T16:15:13.831Z,69.87
2019-04-04T16:17:43.790Z,69.79
2019-04-04T16:20:13.808Z,69.72
2019-04-04T16:22:43.399Z,69.26
2019-04-04T16:25:13.458Z,68.49
2019-04-04T16:27:43.122Z,69.42
2019-04-04T16:30:14.767Z,70.03
2019-04-04T16:32:45.083Z,70.05
2019-04-04T16:35:14.439Z,68.27
2019-04-04T16:37:43.729Z,67.91
2019-04-04T16:40:15.396Z,66.75
2019-04-04T16:42:45.000Z,65.78
2019-04-04T16:45:14.596Z,66.45
2019-04-04T16:47:47.997Z,68.72
2019-04-04T16:50:17.979Z,67.76
2019-04-04T16:52:47.577Z,66.82
2019-04-04T16:55:17.747Z,68.22
2019-04-04T16:57:47.408Z,69.39
2019-04-04T17:00:20.629Z,69.90
2019-04-04T17:02:49.228Z,73.37
2019-04-04T17:05:18.968Z,73.58
2019-04-04T17:07:48.594Z,74.75
2019-04-04T17:10:18.883Z,75.10
2019-04-04T17:17:00.118Z,75.49
2019-04-04T17:19:30.540Z,74.72
2019-04-04T17:22:08.626Z,76.18
2019-04-04T17:24:38.943Z,77.20
2019-04-04T17:27:08.915Z,77.17
2019-04-04T17:29:39.207Z,76.96
2019-04-04T17:32:13.967Z,76.78
2019-04-04T17:34:44.339Z,76.86
2019-04-04T17:37:17.712Z,77.06
2019-04-04T17:39:48.066Z,76.54
2019-04-04T17:42:29.119Z,75.96
2019-04-04T17:45:01.157Z,75.58
2019-04-04T17:47:42.315Z,76.57
2019-04-04T17:50:12.340Z,76.55
2019-04-04T17:53:15.613Z,77.36
2019-04-04T17:55:58.615Z,76.97
2019-04-04T17:58:29.806Z,75.85
2019-04-04T18:01:55.489Z,75.54
2019-04-04T18:04:48.565Z,74.70
2019-04-04T18:07:50.007Z,75.75
2019-04-04T18:10:23.399Z,77.34
2019-04-04T18:12:56.622Z,78.03
2019-04-04T18:16:00.421Z,78.50
2019-04-04T18:18:32.107Z,77.86
2019-04-04T18:21:02.584Z,78.23
2019-04-04T18:23:34.463Z,78.38
2019-04-04T18:26:07.428Z,78.50
2019-04-04T18:28:57.769Z,78.73
2019-04-04T18:32:08.701Z,78.24
2019-04-04T18:35:18.553Z,78.97
2019-04-04T18:37:55.505Z,78.64
2019-04-04T18:40:33.995Z,79.69
2019-04-04T18:46:50.034Z,80.33
2019-04-04T18:49:19.963Z,80.50
2019-04-04T18:51:49.629Z,80.94
2019-04-04T18:54:19.681Z,81.50
2019-04-04T18:56:49.446Z,81.30
2019-04-04T18:59:19.126Z,80.47
2019-04-04T19:01:49.365Z,81.04
2019-04-04T19:04:21.048Z,81.58
2019-04-04T19:06:50.959Z,80.66
2019-04-04T19:09:20.729Z,80.22
2019-04-04T19:11:53.216Z,79.09
2019-04-04T19:14:29.954Z,78.42
2019-04-04T19:16:57.306Z,78.32
2019-04-04T19:19:29.188Z,78.31
2019-04-04T19:21:59.292Z,79.20
2019-04-04T19:24:29.099Z,79.31
2019-04-04T19:26:59.033Z,78.83
2019-04-04T19:29:31.477Z,78.21
2019-04-04T19:32:02.696Z,78.67
2019-04-04T19:34:34.331Z,78.09
2019-04-04T19:37:08.219Z,77.47
2019-04-04T19:39:38.432Z,77.71
2019-04-04T19:42:08.073Z,78.89
2019-04-04T19:44:38.292Z,79.18
2019-04-04T19:47:08.041Z,78.43
2019-04-04T19:49:38.957Z,78.58
2019-04-04T19:52:10.920Z,79.93
2019-04-04T19:54:40.624Z,79.54
2019-04-04T19:57:10.257Z,79.71
2019-04-04T19:59:40.462Z,80.28
2019-04-04T20:02:10.187Z,80.07
2019-04-04T20:04:40.015Z,79.72
2019-04-04T20:07:10.202Z,78.79
2019-04-04T20:09:39.940Z,78.80
2019-04-04T20:12:09.697Z,78.54
2019-04-04T20:14:39.896Z,78.62
2019-04-04T20:24:21.970Z,76.62
2019-04-04T20:26:54.581Z,77.89
2019-04-04T20:29:25.815Z,77.78
2019-04-04T20:31:56.704Z,77.64
2019-04-04T20:34:26.471Z,77.31
2019-04-04T20:36:56.614Z,76.70
2019-04-04T20:39:27.771Z,75.72
2019-04-04T20:41:57.443Z,74.85
2019-04-04T20:44:27.156Z,74.62
2019-04-04T20:46:58.378Z,73.30
2019-04-04T20:49:27.989Z,72.55
2019-04-04T20:51:57.646Z,73.64
2019-04-04T20:54:30.685Z,73.74
2019-04-04T20:57:02.886Z,73.80
2019-04-04T20:59:33.877Z,72.48
2019-04-04T21:02:07.868Z,72.25
2019-04-04T21:04:38.239Z,72.24
2019-04-04T21:07:07.548Z,71.19
2019-04-04T21:09:37.926Z,71.51
2019-04-04T21:12:07.197Z,72.28
2019-04-04T21:14:39.616Z,73.39
2019-04-04T21:17:08.882Z,77.58
2019-04-04T21:19:38.176Z,80.00
2019-04-04T21:22:08.027Z,80.16
2019-04-04T21:24:39.186Z,77.91
2019-04-04T21:27:13.986Z,76.55
2019-04-04T21:29:43.262Z,75.86
2019-04-04T21:32:12.978Z,75.08
2019-04-04T21:34:45.876Z,76.25
2019-04-04T21:37:18.976Z,77.84
2019-04-04T21:39:48.525Z,77.20
2019-04-04T21:42:17.801Z,78.78
2019-04-04T21:44:47.106Z,79.63
2019-04-04T21:47:16.746Z,80.98
2019-04-04T21:49:45.978Z,79.72
2019-04-04T21:52:17.007Z,80.69
2019-04-04T21:54:46.283Z,79.20
2019-04-04T21:57:15.981Z,78.94
2019-04-04T21:59:47.713Z,80.31
2019-04-04T22:02:17.090Z,78.87
2019-04-04T22:04:46.683Z,78.79
2019-04-04T22:07:18.430Z,80.95
2019-04-04T22:09:47.693Z,79.74
2019-04-04T22:12:17.451Z,79.34
2019-04-04T22:14:49.685Z,80.68
2019-04-04T22:17:26.450Z,81.46
2019-04-04T22:20:15.348Z,81.89
2019-04-04T22:22:44.569Z,81.49
2019-04-04T22:25:17.273Z,83.23
2019-04-04T22:27:52.329Z,80.54
2019-04-04T22:30:21.662Z,79.33
2019-04-04T22:32:51.983Z,78.09
2019-04-04T22:35:21.698Z,77.96
2019-04-04T22:37:51.044Z,78.16
2019-04-04T22:40:22.704Z,77.73
2019-04-04T22:42:51.942Z,80.31
2019-04-04T22:45:21.598Z,79.18
2019-04-04T22:47:52.511Z,78.38
2019-04-04T22:50:21.775Z,76.60
2019-04-04T22:52:51.055Z,76.36
2019-04-04T22:55:21.614Z,77.12
2019-04-04T22:57:51.157Z,77.13
2019-04-04T23:00:21.450Z,77.20
2019-04-04T23:02:50.708Z,77.68
2019-04-04T23:05:32.396Z,78.09
2019-04-04T23:08:07.610Z,77.26
2019-04-04T23:10:37.346Z,79.27
2019-04-04T23:13:14.740Z,81.92
2019-04-04T23:15:52.575Z,83.48
2019-04-04T23:18:23.888Z,82.48
2019-04-04T23:20:53.334Z,84.34
2019-04-04T23:23:25.512Z,85.15
2019-04-04T23:25:55.875Z,85.25
2019-04-04T23:28:25.116Z,85.24
2019-04-04T23:30:54.406Z,86.03
2019-04-04T23:33:24.077Z,84.97
2019-04-04T23:35:53.345Z,85.55
2019-04-04T23:38:28.542Z,85.19
2019-04-04T23:40:57.817Z,85.76
2019-04-04T23:43:29.447Z,86.46
2019-04-04T23:45:58.805Z,86.51
2019-04-04T23:48:30.838Z,86.16
2019-04-04T23:51:01.646Z,85.37
2019-04-04T23:53:31.950Z,85.55
2019-04-04T23:56:01.928Z,86.16
2019-04-04T23:58:46.811Z,86.68
